createdAt,value
2018-09-12T00:01:34.508Z,8.87
2018-09-12T00:04:05.331Z,11.23
2018-09-12T00:06:35.459Z,6.43
2018-09-12T00:09:07.506Z,8.27
2018-09-12T00:11:37.598Z,7.43
2018-09-12T00:14:07.894Z,7.70
2018-09-12T00:16:38.031Z,8.20
2018-09-12T00:19:08.392Z,7.93
2018-09-12T00:21:38.471Z,6.50
2018-09-12T00:24:08.473Z,7.33
2018-09-12T00:26:38.503Z,6.23
2018-09-12T00:29:09.038Z,10.00
2018-09-12T00:31:39.587Z,6.73
2018-09-12T00:34:09.195Z,6.50
2018-09-12T00:36:38.691Z,8.33
2018-09-12T00:39:11.560Z,6.47
2018-09-12T00:41:42.390Z,6.87
2018-09-12T00:44:12.242Z,9.53
2018-09-12T00:46:42.635Z,7.13
2018-09-12T00:49:12.990Z,7.57
2018-09-12T00:51:43.002Z,5.60
2018-09-12T00:54:12.643Z,9.97
2018-09-12T00:56:44.376Z,6.83
2018-09-12T00:59:15.547Z,7.10
2018-09-12T01:01:47.276Z,10.57
2018-09-12T01:04:17.186Z,6.37
2018-09-12T01:06:47.742Z,7.93
2018-09-12T01:09:17.761Z,6.40
2018-09-12T01:11:48.203Z,7.03
2018-09-12T01:14:21.246Z,7.30
2018-09-12T01:16:55.558Z,10.33
2018-09-12T01:19:27.844Z,8.70
2018-09-12T01:21:58.981Z,9.20
2018-09-12T01:24:28.556Z,8.37
2018-09-12T01:26:58.435Z,10.73
2018-09-12T01:29:28.528Z,7.07
2018-09-12T01:31:58.278Z,8.13
2018-09-12T01:34:27.981Z,7.03
2018-09-12T01:36:58.422Z,10.60
2018-09-12T01:39:29.387Z,10.13
2018-09-12T01:41:59.384Z,9.37
2018-09-12T01:44:30.037Z,9.10
2018-09-12T01:47:00.428Z,9.97
2018-09-12T01:49:31.247Z,8.93
2018-09-12T01:52:00.414Z,8.73
2018-09-12T01:54:30.019Z,9.63
2018-09-12T01:57:00.156Z,10.00
2018-09-12T01:59:30.368Z,13.50
2018-09-12T02:02:01.071Z,7.67
2018-09-12T02:04:30.661Z,13.40
2018-09-12T02:07:01.056Z,13.30
2018-09-12T02:09:30.816Z,9.73
2018-09-12T02:12:00.620Z,8.07
2018-09-12T02:14:30.574Z,10.63
2018-09-12T02:17:00.222Z,10.53
2018-09-12T02:19:29.226Z,11.63
2018-09-12T02:21:59.495Z,7.43
2018-09-12T02:24:29.582Z,8.87
2018-09-12T02:27:01.602Z,7.83
2018-09-12T02:29:32.299Z,10.67
2018-09-12T02:32:02.119Z,9.53
2018-09-12T02:34:32.483Z,9.37
2018-09-12T02:37:02.095Z,7.90
2018-09-12T02:39:32.184Z,10.70
2018-09-12T02:42:02.209Z,12.10
2018-09-12T02:44:32.242Z,11.50
2018-09-12T02:47:02.106Z,11.40
2018-09-12T02:49:31.913Z,9.80
2018-09-12T02:52:02.552Z,14.30
2018-09-12T02:54:32.570Z,13.13
2018-09-12T02:57:02.223Z,9.37
2018-09-12T02:59:32.067Z,11.17
2018-09-12T03:02:02.969Z,9.73
2018-09-12T03:04:33.315Z,16.60
2018-09-12T03:07:03.563Z,8.87
2018-09-12T03:09:33.647Z,11.33
2018-09-12T03:12:04.451Z,11.57
2018-09-12T03:14:33.872Z,11.97
2018-09-12T03:17:03.402Z,13.73
2018-09-12T03:19:33.642Z,13.90
2018-09-12T03:22:03.979Z,13.17
2018-09-12T03:24:34.951Z,11.27
2018-09-12T03:27:04.543Z,9.27
2018-09-12T03:29:36.109Z,10.80
2018-09-12T03:32:05.479Z,13.10
2018-09-12T03:34:36.094Z,13.00
2018-09-12T03:37:06.166Z,10.13
2018-09-12T03:39:35.666Z,14.73
2018-09-12T03:42:06.145Z,13.50
2018-09-12T03:44:36.836Z,12.87
2018-09-12T03:47:07.094Z,9.57
2018-09-12T03:49:37.083Z,10.97
2018-09-12T03:52:07.355Z,13.30
2018-09-12T03:54:37.857Z,10.83
2018-09-12T03:57:09.040Z,8.60
2018-09-12T03:59:39.334Z,9.07
2018-09-12T04:02:10.186Z,11.07
2018-09-12T04:04:42.242Z,13.87
2018-09-12T04:07:12.250Z,10.67
2018-09-12T04:09:41.611Z,13.63
2018-09-12T04:12:11.116Z,13.63
2018-09-12T04:14:41.783Z,12.73
2018-09-12T04:17:12.244Z,13.57
2018-09-12T04:19:43.226Z,12.07
2018-09-12T04:22:13.016Z,11.80
2018-09-12T04:24:44.122Z,13.43
2018-09-12T04:27:13.984Z,13.00
2018-09-12T04:29:43.406Z,9.27
2018-09-12T04:32:14.190Z,11.40
2018-09-12T04:34:44.457Z,9.43
2018-09-12T04:37:14.979Z,10.80
2018-09-12T04:39:45.708Z,13.97
2018-09-12T04:42:16.199Z,8.97
2018-09-12T04:44:47.218Z,10.07
2018-09-12T04:47:17.287Z,10.40
2018-09-12T04:49:46.991Z,9.87
2018-09-12T04:52:17.296Z,8.80
2018-09-12T04:54:47.209Z,12.37
2018-09-12T04:57:18.291Z,12.27
2018-09-12T04:59:48.633Z,11.73
2018-09-12T05:02:19.484Z,10.00
2018-09-12T05:04:49.533Z,13.67
2018-09-12T05:07:20.187Z,14.27
2018-09-12T05:09:49.822Z,11.57
2018-09-12T05:12:19.704Z,11.63
2018-09-12T05:14:49.782Z,11.93
2018-09-12T05:17:19.413Z,10.83
2018-09-12T05:19:50.102Z,12.67
2018-09-12T05:22:22.218Z,11.27
2018-09-12T05:24:53.611Z,13.90
2018-09-12T05:27:24.313Z,14.13
2018-09-12T05:29:54.311Z,12.03
2018-09-12T05:32:24.971Z,13.60
2018-09-12T05:34:56.430Z,16.67
2018-09-12T05:37:26.061Z,13.50
2018-09-12T05:39:55.802Z,9.40
2018-09-12T05:42:28.063Z,15.70
2018-09-12T05:44:57.667Z,13.33
2018-09-12T05:47:28.843Z,18.20
2018-09-12T05:49:59.699Z,15.57
2018-09-12T05:52:29.540Z,15.00
2018-09-12T05:55:00.366Z,19.63
2018-09-12T05:57:30.665Z,15.83
2018-09-12T06:00:02.744Z,12.50
2018-09-12T06:02:33.924Z,15.63
2018-09-12T06:05:04.581Z,14.53
2018-09-12T06:07:34.271Z,15.67
2018-09-12T06:10:05.078Z,13.30
2018-09-12T06:12:35.531Z,18.07
2018-09-12T06:15:06.182Z,15.90
2018-09-12T06:17:37.628Z,16.07
2018-09-12T06:20:07.659Z,15.30
2018-09-12T06:22:38.234Z,13.93
2018-09-12T06:25:08.079Z,18.77
2018-09-12T06:27:38.667Z,13.97
2018-09-12T06:30:12.585Z,13.20
2018-09-12T06:32:42.560Z,11.47
2018-09-12T06:35:12.068Z,12.13
2018-09-12T06:37:42.509Z,15.43
2018-09-12T06:40:12.547Z,13.33
2018-09-12T06:42:42.114Z,13.60
2018-09-12T06:45:12.343Z,12.43
2018-09-12T06:47:42.380Z,15.23
2018-09-12T06:50:13.127Z,15.10
2018-09-12T06:52:42.738Z,13.73
2018-09-12T06:55:13.025Z,16.57
2018-09-12T06:57:43.314Z,15.50
2018-09-12T07:00:14.255Z,19.20
2018-09-12T07:02:44.830Z,15.83
2018-09-12T07:05:14.648Z,16.80
2018-09-12T07:07:44.414Z,17.97
2018-09-12T07:10:14.626Z,15.83
2018-09-12T07:12:44.442Z,15.87
2018-09-12T07:15:15.551Z,20.67
2018-09-12T07:17:46.211Z,19.00
2018-09-12T07:20:16.970Z,23.83
2018-09-12T07:22:46.899Z,19.30
2018-09-12T07:25:17.477Z,20.03
2018-09-12T07:27:47.535Z,24.67
2018-09-12T07:30:17.223Z,26.50
2018-09-12T07:32:47.578Z,24.77
2018-09-12T07:35:17.429Z,21.63
2018-09-12T07:37:47.011Z,22.60
2018-09-12T07:40:17.444Z,21.27
2018-09-12T07:42:48.228Z,19.93
2018-09-12T07:45:18.851Z,28.03
2018-09-12T07:47:50.098Z,26.20
2018-09-12T07:50:21.082Z,19.10
2018-09-12T07:52:53.166Z,20.57
2018-09-12T07:55:23.282Z,21.77
2018-09-12T07:57:52.948Z,25.47
2018-09-12T08:00:22.037Z,23.93
2018-09-12T08:02:52.339Z,19.93
2018-09-12T08:05:23.670Z,25.53
2018-09-12T08:07:55.887Z,20.67
2018-09-12T08:10:26.858Z,22.37
2018-09-12T08:12:57.171Z,25.00
2018-09-12T08:15:26.386Z,27.90
2018-09-12T08:17:56.064Z,27.17
2018-09-12T08:20:25.224Z,25.10
2018-09-12T08:22:55.172Z,23.93
2018-09-12T08:25:27.424Z,23.90
2018-09-12T08:27:58.538Z,26.90
2018-09-12T08:30:29.763Z,22.83
2018-09-12T08:32:59.373Z,23.73
2018-09-12T08:35:29.275Z,22.20
2018-09-12T08:37:58.550Z,22.43
2018-09-12T08:40:29.014Z,19.13
2018-09-12T08:42:59.811Z,20.30
2018-09-12T08:45:29.851Z,20.27
2018-09-12T08:48:00.203Z,17.97
2018-09-12T08:50:30.212Z,17.33
2018-09-12T08:52:59.912Z,23.60
2018-09-12T08:55:29.265Z,26.27
2018-09-12T08:57:59.863Z,28.30
2018-09-12T09:00:34.432Z,25.67
2018-09-12T09:03:05.476Z,31.20
2018-09-12T09:05:35.379Z,29.50
2018-09-12T09:08:05.003Z,24.87
2018-09-12T09:10:34.949Z,22.57
2018-09-12T09:13:05.378Z,21.40
2018-09-12T09:15:36.239Z,25.67
2018-09-12T09:18:08.452Z,23.73
2018-09-12T09:20:38.544Z,22.53
2018-09-12T09:23:09.098Z,20.97
2018-09-12T09:25:39.569Z,22.70
2018-09-12T09:28:11.019Z,22.63
2018-09-12T09:30:41.254Z,24.37
2018-09-12T09:33:10.567Z,22.17
2018-09-12T09:35:40.344Z,19.40
2018-09-12T09:38:10.507Z,20.43
2018-09-12T09:40:41.870Z,18.17
2018-09-12T09:43:11.674Z,25.47
2018-09-12T09:45:41.006Z,20.27
2018-09-12T09:48:11.148Z,20.30
2018-09-12T09:50:41.011Z,19.43
2018-09-12T09:53:11.911Z,19.57
2018-09-12T09:55:42.278Z,17.33
2018-09-12T09:58:12.294Z,18.87
2018-09-12T10:01:51.570Z,19.70
2018-09-12T10:04:23.649Z,21.40
2018-09-12T10:07:00.831Z,17.87
2018-09-12T10:09:33.991Z,16.47
2018-09-12T10:12:04.724Z,12.17
2018-09-12T10:14:33.874Z,14.87
2018-09-12T10:17:04.299Z,15.67
2018-09-12T10:19:35.495Z,10.93
2018-09-12T10:22:06.151Z,15.13
2018-09-12T10:24:36.387Z,17.23
2018-09-12T10:27:06.601Z,11.40
2018-09-12T10:29:36.009Z,13.83
2018-09-12T10:32:06.199Z,15.27
2018-09-12T10:34:38.699Z,17.27
2018-09-12T10:37:09.178Z,16.67
2018-09-12T10:39:40.189Z,15.53
2018-09-12T10:42:09.591Z,14.93
2018-09-12T10:44:39.177Z,14.47
2018-09-12T10:47:08.619Z,17.43
2018-09-12T10:49:38.576Z,16.50
2018-09-12T10:52:08.877Z,18.30
2018-09-12T10:54:38.694Z,18.83
2018-09-12T10:57:08.853Z,17.83
2018-09-12T10:59:38.464Z,17.40
2018-09-12T11:02:07.889Z,20.33
2018-09-12T11:04:38.178Z,19.20
2018-09-12T11:07:08.808Z,19.90
2018-09-12T11:09:38.276Z,15.27
2018-09-12T11:12:08.362Z,16.23
2018-09-12T11:14:38.851Z,18.03
2018-09-12T11:17:09.455Z,18.10
2018-09-12T11:19:39.760Z,21.30
2018-09-12T11:22:10.188Z,16.73
2018-09-12T11:24:40.738Z,24.30
2018-09-12T11:27:10.874Z,22.23
2018-09-12T11:29:42.875Z,17.83
2018-09-12T11:32:14.637Z,18.30
2018-09-12T11:34:46.894Z,18.53
2018-09-12T11:37:17.051Z,17.97
2018-09-12T11:39:47.361Z,21.00
2018-09-12T11:42:17.951Z,18.33
2018-09-12T11:44:47.594Z,22.73
2018-09-12T11:47:18.300Z,21.87
2018-09-12T11:49:48.094Z,24.53
2018-09-12T11:52:17.695Z,22.93
2018-09-12T11:54:47.355Z,20.53
2018-09-12T11:57:16.576Z,16.97
2018-09-12T11:59:46.668Z,17.70
2018-09-12T12:02:21.552Z,17.53
2018-09-12T12:04:52.388Z,14.27
2018-09-12T12:07:23.366Z,13.17
2018-09-12T12:09:53.335Z,17.70
2018-09-12T12:12:23.276Z,13.73
2018-09-12T12:14:53.729Z,12.63
2018-09-12T12:17:24.230Z,16.47
2018-09-12T12:19:54.635Z,14.50
2018-09-12T12:22:24.479Z,13.17
2018-09-12T12:24:53.926Z,10.33
2018-09-12T12:27:24.479Z,10.83
2018-09-12T12:29:53.703Z,9.13
2018-09-12T12:32:23.010Z,14.70
2018-09-12T12:34:52.519Z,10.50
2018-09-12T12:37:21.755Z,9.60
2018-09-12T12:39:52.518Z,15.43
2018-09-12T12:42:24.288Z,17.80
2018-09-12T12:44:55.585Z,16.43
2018-09-12T12:47:25.625Z,15.77
2018-09-12T12:49:55.827Z,14.10
2018-09-12T12:52:26.310Z,13.17
2018-09-12T12:54:57.932Z,15.03
2018-09-12T12:57:28.106Z,13.50
2018-09-12T12:59:57.301Z,14.50
2018-09-12T13:02:27.028Z,12.30
2018-09-12T13:04:57.491Z,13.00
2018-09-12T13:07:28.190Z,18.87
2018-09-12T13:09:58.269Z,19.63
2018-09-12T13:12:28.993Z,14.00
2018-09-12T13:14:59.143Z,11.83
2018-09-12T13:17:28.555Z,15.50
2018-09-12T13:19:58.326Z,8.50
2018-09-12T13:22:27.519Z,11.53
2018-09-12T13:24:56.804Z,15.30
2018-09-12T13:27:26.544Z,12.67
2018-09-12T13:29:56.819Z,16.10
2018-09-12T13:32:28.242Z,15.27
2018-09-12T13:34:58.635Z,8.77
2018-09-12T13:37:28.186Z,10.20
2018-09-12T13:39:57.955Z,8.80
2018-09-12T13:42:27.442Z,9.47
2018-09-12T13:44:57.269Z,8.10
2018-09-12T13:47:28.266Z,7.90
2018-09-12T13:49:58.483Z,8.87
2018-09-12T13:52:29.191Z,7.83
2018-09-12T13:54:59.875Z,9.17
2018-09-12T13:57:30.011Z,8.73
2018-09-12T14:00:01.181Z,8.83
2018-09-12T14:02:30.991Z,7.50
2018-09-12T14:05:01.095Z,6.60
2018-09-12T14:07:31.511Z,6.50
2018-09-12T14:10:03.166Z,6.17
2018-09-12T14:12:33.289Z,8.50
2018-09-12T14:15:04.079Z,6.30
2018-09-12T14:17:34.849Z,5.60
2018-09-12T14:20:04.742Z,8.27
2018-09-12T14:22:34.387Z,6.33
2018-09-12T14:25:05.291Z,9.17
2018-09-12T14:27:35.487Z,4.27
2018-09-12T14:30:06.970Z,4.67
2018-09-12T14:32:37.168Z,9.63
2018-09-12T14:35:06.424Z,4.00
2018-09-12T14:37:37.371Z,6.20
2018-09-12T14:40:11.040Z,5.37
2018-09-12T14:42:41.402Z,4.13
2018-09-12T14:45:11.283Z,5.63
2018-09-12T14:47:41.367Z,4.77
2018-09-12T14:50:12.752Z,7.93
2018-09-12T14:52:43.119Z,4.20
2018-09-12T14:55:12.359Z,5.37
2018-09-12T14:57:43.106Z,4.90
2018-09-12T15:00:17.462Z,5.43
2018-09-12T15:02:48.402Z,7.17
2018-09-12T15:05:18.546Z,6.37
2018-09-12T15:07:49.957Z,4.33
2018-09-12T15:10:19.360Z,4.00
2018-09-12T15:12:49.238Z,4.60
2018-09-12T15:15:19.458Z,3.50
2018-09-12T15:17:48.584Z,4.33
2018-09-12T15:20:18.390Z,5.80
2018-09-12T15:22:48.625Z,5.03
2018-09-12T15:25:19.906Z,4.83
2018-09-12T15:27:50.448Z,8.63
2018-09-12T15:30:20.298Z,5.60
2018-09-12T15:32:50.451Z,6.43
2018-09-12T15:35:20.038Z,6.17
2018-09-12T15:37:51.279Z,8.47
2018-09-12T15:40:21.190Z,6.33
2018-09-12T15:42:51.454Z,7.70
2018-09-12T15:45:21.479Z,8.17
2018-09-12T15:47:51.011Z,8.13
2018-09-12T15:50:22.741Z,7.63
2018-09-12T15:52:52.934Z,7.57
2018-09-12T15:55:23.330Z,7.97
2018-09-12T15:57:53.470Z,8.57
2018-09-12T16:00:22.527Z,9.87
2018-09-12T16:02:52.451Z,9.30
2018-09-12T16:05:22.330Z,9.97
2018-09-12T16:07:53.167Z,9.87
2018-09-12T16:10:24.350Z,9.83
2018-09-12T16:12:55.206Z,9.13
2018-09-12T16:15:25.484Z,9.40
2018-09-12T16:17:56.640Z,9.97
2018-09-12T16:20:26.880Z,9.63
2018-09-12T16:22:57.640Z,9.60
2018-09-12T16:25:27.486Z,9.20
2018-09-12T16:27:58.594Z,9.63
2018-09-12T16:30:28.537Z,9.63
2018-09-12T16:32:58.562Z,8.27
2018-09-12T16:35:27.944Z,8.63
2018-09-12T16:37:57.911Z,11.77
2018-09-12T16:40:28.280Z,9.80
2018-09-12T16:42:59.834Z,8.93
2018-09-12T16:45:29.894Z,9.37
2018-09-12T16:48:00.020Z,9.03
2018-09-12T16:50:30.207Z,6.57
2018-09-12T16:53:00.401Z,6.97
2018-09-12T16:55:31.090Z,7.23
2018-09-12T16:58:01.456Z,7.50
2018-09-12T17:00:32.883Z,6.30
2018-09-12T17:03:02.807Z,8.90
2018-09-12T17:05:31.960Z,6.57
2018-09-12T17:08:02.847Z,7.47
2018-09-12T17:10:32.911Z,7.27
2018-09-12T17:13:03.522Z,7.03
2018-09-12T17:15:34.430Z,6.40
2018-09-12T17:18:04.202Z,8.67
2018-09-12T17:20:34.530Z,7.23
2018-09-12T17:23:05.383Z,7.63
2018-09-12T17:25:35.070Z,9.97
2018-09-12T17:28:04.960Z,12.00
2018-09-12T17:30:36.815Z,12.00
2018-09-12T17:33:08.226Z,12.33
2018-09-12T17:35:39.122Z,12.00
2018-09-12T17:38:10.122Z,9.63
2018-09-12T17:40:39.586Z,9.43
2018-09-12T17:43:09.260Z,10.57
2018-09-12T17:45:39.166Z,10.40
2018-09-12T17:48:08.603Z,9.47
2018-09-12T17:50:39.328Z,13.00
2018-09-12T17:53:09.562Z,8.50
2018-09-12T17:55:39.526Z,9.10
2018-09-12T17:58:10.128Z,8.57
2018-09-12T18:00:40.359Z,8.07
2018-09-12T18:03:11.064Z,8.00
2018-09-12T18:05:40.750Z,7.93
2018-09-12T18:08:10.834Z,8.13
2018-09-12T18:10:40.462Z,7.27
2018-09-12T18:13:11.044Z,10.17
2018-09-12T18:15:41.758Z,7.97
2018-09-12T18:18:12.247Z,9.23
2018-09-12T18:20:42.109Z,7.63
2018-09-12T18:23:13.146Z,7.27
2018-09-12T18:25:43.221Z,11.27
2018-09-12T18:28:13.707Z,9.70
2018-09-12T18:30:43.657Z,6.97
2018-09-12T18:33:13.882Z,7.27
2018-09-12T18:35:43.816Z,7.00
2018-09-12T18:38:15.254Z,7.10
2018-09-12T18:40:46.263Z,6.80
2018-09-12T18:43:15.158Z,7.50
2018-09-12T18:45:46.214Z,7.53
2018-09-12T18:48:16.205Z,7.83
2018-09-12T18:50:45.315Z,8.80
2018-09-12T18:53:14.650Z,7.33
2018-09-12T18:55:45.146Z,9.70
2018-09-12T18:58:14.735Z,10.87
2018-09-12T19:00:46.578Z,8.13
2018-09-12T19:03:16.126Z,7.67
2018-09-12T19:05:46.069Z,8.37
2018-09-12T19:08:16.563Z,7.00
2018-09-12T19:10:47.023Z,7.13
2018-09-12T19:13:16.607Z,7.73
2018-09-12T19:15:46.988Z,8.53
2018-09-12T19:18:17.046Z,8.40
2018-09-12T19:20:47.270Z,8.87
2018-09-12T19:23:17.075Z,7.03
2018-09-12T19:25:46.704Z,6.67
2018-09-12T19:28:17.110Z,7.60
2018-09-12T19:30:47.479Z,7.17
2018-09-12T19:33:17.816Z,7.97
2018-09-12T19:35:48.701Z,7.70
2018-09-12T19:38:18.794Z,8.37
2018-09-12T19:40:48.251Z,7.03
2018-09-12T19:43:17.354Z,8.93
2018-09-12T19:45:48.395Z,8.03
2018-09-12T19:48:18.473Z,7.73
2018-09-12T19:50:47.975Z,8.27
2018-09-12T19:53:18.035Z,9.90
2018-09-12T19:55:47.535Z,10.17
2018-09-12T19:58:16.883Z,10.13
2018-09-12T20:00:46.644Z,8.27
2018-09-12T20:03:18.239Z,9.00
2018-09-12T20:05:48.286Z,9.93
2018-09-12T20:08:19.052Z,12.57
2018-09-12T20:10:50.145Z,8.53
2018-09-12T20:13:19.262Z,9.47
2018-09-12T20:15:49.075Z,9.70
2018-09-12T20:18:19.166Z,12.37
2018-09-12T20:20:48.595Z,9.57
2018-09-12T20:23:19.039Z,8.13
2018-09-12T20:25:48.818Z,10.03
2018-09-12T20:28:19.224Z,11.40
2018-09-12T20:30:51.167Z,8.17
2018-09-12T20:33:21.313Z,11.10
2018-09-12T20:35:50.603Z,9.57
2018-09-12T20:38:19.840Z,15.17
2018-09-12T20:40:49.053Z,11.83
2018-09-12T20:43:19.653Z,10.00
2018-09-12T20:45:50.006Z,11.77
2018-09-12T20:48:20.277Z,11.40
2018-09-12T20:50:49.455Z,11.70
2018-09-12T20:53:19.455Z,13.30
2018-09-12T20:55:49.779Z,11.80
2018-09-12T20:58:20.106Z,10.13
2018-09-12T21:00:49.947Z,9.10
2018-09-12T21:03:19.896Z,11.30
2018-09-12T21:05:49.833Z,10.33
2018-09-12T21:08:20.543Z,10.43
2018-09-12T21:10:51.052Z,10.60
2018-09-12T21:13:21.305Z,11.33
2018-09-12T21:15:51.284Z,9.63
2018-09-12T21:18:21.479Z,10.33
2018-09-12T21:20:51.954Z,9.70
2018-09-12T21:23:21.590Z,10.20
2018-09-12T21:25:51.259Z,9.77
2018-09-12T21:28:21.128Z,12.40
2018-09-12T21:30:52.713Z,10.57
2018-09-12T21:33:22.832Z,10.47
2018-09-12T21:35:53.754Z,11.83
2018-09-12T21:38:23.671Z,12.03
2018-09-12T21:40:53.899Z,14.53
2018-09-12T21:43:23.923Z,10.20
2018-09-12T21:45:54.059Z,12.80
2018-09-12T21:48:24.166Z,14.93
2018-09-12T21:50:54.635Z,12.90
2018-09-12T21:53:25.604Z,12.03
2018-09-12T21:55:55.878Z,11.60
2018-09-12T21:58:26.624Z,11.27
2018-09-12T22:00:56.934Z,10.87
2018-09-12T22:03:26.495Z,8.77
2018-09-12T22:05:56.699Z,8.33
2018-09-12T22:08:26.334Z,8.73
2018-09-12T22:10:56.153Z,9.10
2018-09-12T22:13:26.082Z,9.63
2018-09-12T22:15:56.332Z,9.97
2018-09-12T22:18:27.171Z,7.73
2018-09-12T22:20:56.553Z,7.10
2018-09-12T22:23:27.455Z,9.87
2018-09-12T22:25:57.791Z,9.43
2018-09-12T22:28:28.256Z,7.23
2018-09-12T22:30:57.855Z,9.37
2018-09-12T22:33:27.291Z,7.00
2018-09-12T22:35:57.306Z,8.83
2018-09-12T22:38:27.225Z,8.50
2018-09-12T22:40:57.243Z,9.73
2018-09-12T22:43:27.642Z,13.00
2018-09-12T22:45:58.015Z,10.13
2018-09-12T22:48:27.950Z,12.40
2018-09-12T22:51:01.874Z,11.00
2018-09-12T22:53:33.234Z,9.07
2018-09-12T22:56:03.075Z,9.83
2018-09-12T22:58:32.973Z,10.03
2018-09-12T23:01:02.232Z,8.40
2018-09-12T23:03:33.121Z,11.10
2018-09-12T23:06:02.975Z,9.20
2018-09-12T23:08:32.830Z,9.90
2018-09-12T23:11:03.137Z,8.73
2018-09-12T23:13:32.556Z,12.03
2018-09-12T23:16:02.194Z,9.50
2018-09-12T23:18:31.842Z,7.97
2018-09-12T23:21:01.241Z,10.50
2018-09-12T23:23:32.226Z,10.17
2018-09-12T23:26:04.107Z,7.83
2018-09-12T23:28:35.862Z,7.37
2018-09-12T23:31:06.819Z,8.37
2018-09-12T23:33:37.870Z,9.07
2018-09-12T23:36:08.110Z,9.10
2018-09-12T23:38:37.657Z,9.83
2018-09-12T23:41:08.039Z,10.40
2018-09-12T23:43:38.889Z,8.30
2018-09-12T23:46:10.199Z,8.90
2018-09-12T23:48:42.090Z,11.17
2018-09-12T23:51:11.867Z,10.87
2018-09-12T23:53:41.841Z,8.43
2018-09-12T23:56:12.040Z,13.43
2018-09-12T23:58:42.237Z,13.30
